Time;durP1;ratioP1;P1;durP2;ratioP2;P2;SDS_P1;SDS_P2;PMS_P1;PMS_P2;Temp;Humidity;BMP_temperature;BMP_pressure;BME280_temperature;BME280_humidity;BME280_pressure;Samples;Min_cycle;Max_cycle;Signal;HPM_P1;HPM_P2
2021/12/07 00:01:38;;;;;;;4.75;1.00;;;6.30;99.90;;;;;;5096058;27;20036;-78
2021/12/07 00:04:14;;;;;;;2.75;1.17;;;5.50;99.90;;;;;;5094513;27;20048;-78
2021/12/07 00:06:41;;;;;;;4.95;1.27;;;6.20;99.90;;;;;;5091118;27;20097;-78
2021/12/07 00:09:12;;;;;;;4.53;1.58;;;6.50;99.90;;;;;;5096714;27;20916;-78
2021/12/07 00:11:48;;;;;;;1.02;0.43;;;6.20;99.90;;;;;;5096530;27;20529;-78
2021/12/07 00:14:21;;;;;;;2.67;0.90;;;6.20;99.90;;;;;;5097574;27;20043;-78
2021/12/07 00:16:56;;;;;;;1.95;0.80;;;6.50;99.90;;;;;;5095609;27;20115;-78
2021/12/07 00:19:23;;;;;;;3.33;1.13;;;6.20;99.90;;;;;;5095144;27;20526;-78
2021/12/07 00:21:52;;;;;;;1.17;0.88;;;6.50;99.90;;;;;;5090908;27;20149;-78
2021/12/07 00:27:57;;;;;;;8.55;1.10;;;6.10;99.90;;;;;;5079414;27;20052;-82
2021/12/07 00:31:19;;;;;;;;;;;;;;;;;;;;;
2021/12/07 00:33:40;;;;;;;4.22;1.45;;;6.10;99.90;;;;;;5088705;27;20184;-83
2021/12/07 00:36:14;;;;;;;2.92;1.38;;;6.40;99.90;;;;;;5098200;27;20073;-82
2021/12/07 00:38:59;;;;;;;5.80;1.75;;;6.10;99.90;;;;;;5088970;27;20056;-83
2021/12/07 00:41:44;;;;;;;3.83;1.98;;;6.30;99.90;;;;;;5072679;28;20052;-80
2021/12/07 00:44:41;;;;;;;2.08;1.10;;;6.10;99.90;;;;;;5076635;27;20052;-80
2021/12/07 00:47:31;;;;;;;2.15;0.85;;;6.20;99.90;;;;;;5089254;27;20083;-80
2021/12/07 00:50:19;;;;;;;1.65;1.05;;;6.00;99.90;;;;;;5095440;27;20124;-81
2021/12/07 00:53:18;;;;;;;4.78;1.10;;;6.00;99.90;;;;;;5077846;27;20641;-81
2021/12/07 00:56:12;;;;;;;0.50;0.50;;;6.00;99.90;;;;;;5067596;28;20051;-81
2021/12/07 01:02:24;;;;;;;3.65;0.95;;;6.10;99.90;;;;;;5089580;27;20128;-81
2021/12/07 01:05:26;;;;;;;4.90;1.17;;;5.90;99.90;;;;;;5056125;28;20561;-80
2021/12/07 01:26:19;;;;;;;1.70;0.77;;;5.70;99.90;;;;;;5076161;28;20057;-81
2021/12/07 01:38:37;;;;;;;4.60;1.58;;;5.70;99.90;;;;;;5098041;27;20040;-81
2021/12/07 01:53:07;;;;;;;2.70;1.35;;;5.70;99.90;;;;;;5093859;27;20762;-82
2021/12/07 02:02:12;;;;;;;2.22;1.15;;;5.80;99.90;;;;;;5097468;28;20040;-82
2021/12/07 02:05:12;;;;;;;;;;;5.60;99.90;;;;;;5100099;27;20048;-82
2021/12/07 02:08:02;;;;;;;1.02;0.85;;;5.70;99.90;;;;;;5098427;27;19924;-82
2021/12/07 02:11:26;;;;;;;4.65;1.02;;;6.00;99.90;;;;;;5092092;27;20062;-82
2021/12/07 02:14:35;;;;;;;2.58;0.90;;;5.60;99.90;;;;;;5024339;28;20041;-82
2021/12/07 02:17:26;;;;;;;3.47;1.77;;;5.60;99.90;;;;;;5034309;28;20054;-81
2021/12/07 02:19:59;;;;;;;8.85;1.52;;;5.60;99.90;;;;;;5053961;28;20072;-82
2021/12/07 02:23:00;;;;;;;2.30;1.48;;;5.60;99.90;;;;;;5040237;28;20399;-82
2021/12/07 02:28:57;;;;;;;5.35;1.95;;;5.50;99.90;;;;;;5055606;28;20612;-82
2021/12/07 02:31:36;;;;;;;5.95;1.67;;;5.60;99.90;;;;;;5037063;28;20053;-82
2021/12/07 02:34:54;;;;;;;2.55;1.80;;;5.60;99.90;;;;;;5034737;28;20070;-82
2021/12/07 02:37:34;;;;;;;3.33;1.80;;;5.60;99.90;;;;;;5050872;28;20052;-82
2021/12/07 02:40:21;;;;;;;5.30;1.77;;;5.50;99.90;;;;;;5036668;28;20702;-82
2021/12/07 02:43:23;;;;;;;5.75;1.73;;;5.60;99.90;;;;;;5036661;28;20548;-82
2021/12/07 02:46:13;;;;;;;8.52;1.63;;;5.50;99.90;;;;;;5041922;28;20053;-82
2021/12/07 02:54:44;;;;;;;5.25;1.77;;;5.50;99.90;;;;;;5087708;27;20525;-81
2021/12/07 02:57:52;;;;;;;8.10;1.95;;;4.60;99.90;;;;;;5098182;27;20052;-81
2021/12/07 03:00:42;;;;;;;3.28;1.92;;;5.50;99.90;;;;;;5092823;27;20190;-81
2021/12/07 03:04:02;;;;;;;;;;;;;;;;;;;;;
2021/12/07 03:26:12;;;;;;;1.52;1.15;;;5.40;99.90;;;;;;5095378;27;20063;-81
2021/12/07 03:29:05;;;;;;;1.95;1.33;;;5.30;99.90;;;;;;5093114;27;20055;-81
2021/12/07 03:32:19;;;;;;;5.25;2.10;;;5.50;99.90;;;;;;5094293;27;20072;-81
2021/12/07 03:35:00;;;;;;;12.80;3.10;;;5.20;99.90;;;;;;5091433;27;20052;-80
2021/12/07 03:37:56;;;;;;;6.25;2.70;;;5.40;99.90;;;;;;5092550;28;20044;-81
2021/12/07 03:41:05;;;;;;;;;;;;;;;;;;;;;
2021/12/07 03:44:11;;;;;;;6.78;2.97;;;5.20;99.90;;;;;;5102414;27;43870;-81
2021/12/07 03:47:17;;;;;;;;;;;;;;;;;;;;;
2021/12/07 03:49:52;;;;;;;4.68;2.03;;;5.20;99.90;;;;;;5095175;27;39423;-79
2021/12/07 03:52:53;;;;;;;;;;;;;;;;;;;;;
2021/12/07 03:55:39;;;;;;;3.78;1.65;;;4.80;99.90;;;;;;5100302;27;43871;-79
2021/12/07 04:02:00;;;;;;;10.95;2.30;;;5.20;99.90;;;;;;5091064;27;20048;-79
2021/12/07 04:04:57;;;;;;;3.25;1.45;;;5.20;99.90;;;;;;5054481;28;20049;-78
2021/12/07 04:07:47;;;;;;;2.28;1.45;;;5.20;99.90;;;;;;5038463;28;20450;-78
2021/12/07 04:13:20;;;;;;;5.85;1.75;;;5.50;99.90;;;;;;5053382;28;20052;-79
2021/12/07 04:16:12;;;;;;;6.65;1.70;;;5.30;99.90;;;;;;5041820;28;20148;-78
2021/12/07 04:19:00;;;;;;;2.35;1.10;;;5.20;99.90;;;;;;5053753;28;20055;-78
2021/12/07 04:22:09;;;;;;;10.93;2.10;;;5.20;99.90;;;;;;5052680;28;20063;-78
2021/12/07 04:25:12;;;;;;;4.72;1.35;;;5.30;99.90;;;;;;5054437;28;20055;-78
2021/12/07 04:28:13;;;;;;;;;;;;;;;;;;;;;
2021/12/07 04:31:19;;;;;;;2.22;1.48;;;5.30;99.90;;;;;;5089614;27;43761;-79
2021/12/07 04:34:31;;;;;;;7.72;1.50;;;4.70;99.90;;;;;;5010793;28;20058;-78
2021/12/07 04:37:24;;;;;;;5.03;2.10;;;5.40;99.90;;;;;;5018251;28;20144;-79
2021/12/07 04:40:09;;;;;;;5.18;2.13;;;5.60;99.90;;;;;;5032806;28;20053;-78
2021/12/07 04:43:07;;;;;;;5.88;2.33;;;5.50;99.90;;;;;;5026158;28;20046;-78
2021/12/07 05:01:08;;;;;;;;;;;;;;;;;;;;;
2021/12/07 05:03:56;;;;;;;6.15;1.95;;;5.80;99.90;;;;;;5110950;27;39377;-79
2021/12/07 05:07:20;;;;;;;9.40;2.22;;;5.80;99.90;;;;;;5089338;27;20063;-78
2021/12/07 05:40:52;;;;;;;5.15;2.50;;;5.80;99.90;;;;;;5113238;27;20134;-78
2021/12/07 05:44:11;;;;;;;6.18;2.67;;;5.80;99.90;;;;;;5082325;27;20048;-79
2021/12/07 05:46:58;;;;;;;8.60;3.03;;;5.80;99.90;;;;;;5097634;27;20063;-79
2021/12/07 05:50:25;;;;;;;8.10;1.88;;;5.80;99.90;;;;;;5091411;27;20131;-79
2021/12/07 05:53:32;;;;;;;5.85;2.15;;;6.00;99.90;;;;;;5011514;28;20515;-78
2021/12/07 05:56:43;;;;;;;6.57;3.08;;;5.80;99.90;;;;;;5035282;28;20045;-78
2021/12/07 05:59:32;;;;;;;8.48;2.50;;;5.80;99.90;;;;;;5016192;28;20056;-78
2021/12/07 06:02:21;;;;;;;;;;;;;;;;;;;;;
2021/12/07 06:05:28;;;;;;;;;;;;;;;;;;;;;
2021/12/07 06:08:13;;;;;;;6.97;3.13;;;5.80;99.90;;;;;;5104502;27;43804;-78
2021/12/07 06:11:28;;;;;;;;;;;;;;;;;;;;;
2021/12/07 06:14:34;;;;;;;6.63;2.83;;;6.20;99.90;;;;;;5112314;27;41084;-82
2021/12/07 06:17:35;;;;;;;6.43;2.42;;;6.50;99.90;;;;;;5090469;27;20571;-78
2021/12/07 06:20:54;;;;;;;;;;;;;;;;;;;;;
2021/12/07 06:23:58;;;;;;;;;;;;;;;;;;;;;
2021/12/07 06:26:51;;;;;;;6.75;2.50;;;5.90;99.90;;;;;;5113468;27;40389;-80
2021/12/07 06:29:57;;;;;;;6.38;2.20;;;5.90;99.90;;;;;;5084106;27;20725;-80
2021/12/07 06:36:05;;;;;;;7.78;2.47;;;5.60;99.90;;;;;;5114659;27;20043;-80
2021/12/07 06:39:18;;;;;;;;;;;;;;;;;;;;;
2021/12/07 06:42:04;;;;;;;;;;;6.00;99.90;;;;;;5110696;27;38128;-80
2021/12/07 06:44:33;;;;;;;6.10;2.30;;;6.00;99.90;;;;;;5098063;27;19931;-79
2021/12/07 06:47:10;;;;;;;5.53;3.40;;;6.30;99.90;;;;;;5102322;27;20544;-79
2021/12/07 06:53:36;;;;;;;3.28;1.95;;;6.10;99.90;;;;;;5112172;27;20040;-79
2021/12/07 06:56:26;;;;;;;3.15;1.88;;;5.80;99.90;;;;;;5117428;27;20592;-80
2021/12/07 07:02:19;;;;;;;3.10;2.50;;;5.80;99.90;;;;;;5114205;27;20052;-79
2021/12/07 07:05:30;;;;;;;;;;;;;;;;;;;;;
2021/12/07 07:12:02;;;;;;;4.38;2.50;;;5.70;99.90;;;;;;5082101;27;20562;-80
2021/12/07 07:18:01;;;;;;;3.03;1.73;;;5.40;99.90;;;;;;5112509;27;20048;-79
2021/12/07 07:24:33;;;;;;;2.67;1.38;;;5.80;99.90;;;;;;5025056;28;20049;-79
2021/12/07 07:27:23;;;;;;;2.47;1.75;;;5.80;99.90;;;;;;5065992;27;20116;-79
2021/12/07 07:35:45;;;;;;;2.78;1.50;;;6.10;99.90;;;;;;5099746;27;20491;-78
2021/12/07 07:38:17;;;;;;;1.70;0.90;;;5.60;99.90;;;;;;5104505;27;20142;-78
2021/12/07 07:40:49;;;;;;;;;;;5.90;99.90;;;;;;5102220;27;20461;-79
2021/12/07 07:43:19;;;;;;;3.50;1.25;;;5.70;99.90;;;;;;5101470;27;19930;-79
2021/12/07 07:45:56;;;;;;;2.88;1.40;;;5.70;99.90;;;;;;5098631;27;20087;-78
2021/12/07 07:48:32;;;;;;;2.15;1.45;;;5.70;99.90;;;;;;5120751;27;20047;-78
2021/12/07 07:51:14;;;;;;;2.50;1.65;;;5.70;99.90;;;;;;5101278;27;20040;-78
2021/12/07 07:53:58;;;;;;;6.22;1.70;;;5.90;99.90;;;;;;5094340;27;20109;-78
2021/12/07 07:56:56;;;;;;;3.05;1.42;;;5.70;99.90;;;;;;5113894;27;20590;-78
2021/12/07 07:59:45;;;;;;;1.42;1.15;;;5.60;99.90;;;;;;5102193;27;20628;-78
2021/12/07 08:02:19;;;;;;;5.00;1.60;;;5.20;99.90;;;;;;5078390;28;20205;-78
2021/12/07 08:04:57;;;;;;;2.90;1.50;;;5.60;99.90;;;;;;5094409;27;20511;-78
2021/12/07 08:07:39;;;;;;;3.50;1.23;;;5.80;99.90;;;;;;5082221;27;20048;-78
2021/12/07 08:10:28;;;;;;;4.82;1.88;;;5.60;99.90;;;;;;5093128;27;20121;-78
2021/12/07 08:13:23;;;;;;;3.03;1.67;;;5.50;99.90;;;;;;5078230;28;20052;-78
2021/12/07 08:19:05;;;;;;;;;;;;;;;;;;;;;
2021/12/07 08:21:31;;;;;;;3.42;1.70;;;5.70;99.90;;;;;;5096003;27;40016;-78
2021/12/07 08:24:16;;;;;;;2.58;2.00;;;5.70;99.90;;;;;;5080301;28;20074;-78
2021/12/07 08:26:47;;;;;;;2.80;1.80;;;5.70;99.90;;;;;;5075998;27;20921;-79
2021/12/07 08:29:45;;;;;;;2.17;1.00;;;5.80;99.90;;;;;;5081229;28;20040;-78
2021/12/07 08:32:14;;;;;;;3.40;1.42;;;5.90;99.90;;;;;;5099582;27;20127;-77
2021/12/07 08:34:45;;;;;;;2.95;2.03;;;5.90;99.90;;;;;;5077303;28;20043;-79
2021/12/07 08:37:30;;;;;;;1.45;0.90;;;5.70;99.90;;;;;;5082462;27;20246;-79
2021/12/07 08:40:09;;;;;;;3.45;1.65;;;6.00;99.90;;;;;;5078343;27;20536;-79
2021/12/07 08:42:43;;;;;;;2.80;1.73;;;6.00;99.90;;;;;;5081164;27;20070;-79
2021/12/07 08:45:19;;;;;;;2.83;1.75;;;6.30;99.90;;;;;;5081320;27;20044;-79
2021/12/07 08:47:58;;;;;;;4.00;1.63;;;6.20;99.90;;;;;;5077399;28;20074;-79
2021/12/07 08:50:32;;;;;;;2.45;1.42;;;6.10;99.90;;;;;;5077050;27;20036;-79
2021/12/07 08:53:02;;;;;;;3.05;1.75;;;6.20;99.90;;;;;;5078658;28;20047;-79
2021/12/07 09:01:23;;;;;;;1.88;1.50;;;6.30;99.90;;;;;;5096280;27;20043;-79
2021/12/07 09:03:59;;;;;;;2.88;1.27;;;6.30;99.90;;;;;;5080550;27;20040;-79
2021/12/07 09:06:32;;;;;;;5.30;1.23;;;6.20;99.90;;;;;;5078894;28;20036;-79
2021/12/07 09:09:30;;;;;;;3.35;1.90;;;5.90;99.90;;;;;;5078249;28;20067;-79
2021/12/07 09:12:05;;;;;;;2.97;1.90;;;6.40;99.90;;;;;;5094117;27;20059;-78
2021/12/07 09:14:38;;;;;;;3.13;1.67;;;6.40;99.90;;;;;;5093396;27;20065;-78
2021/12/07 09:17:19;;;;;;;3.00;1.40;;;6.20;99.90;;;;;;5077207;28;20091;-78
2021/12/07 09:20:11;;;;;;;3.28;1.48;;;6.50;99.90;;;;;;5091948;27;20106;-79
2021/12/07 09:22:40;;;;;;;4.60;1.90;;;6.60;99.90;;;;;;5075265;28;20048;-79
2021/12/07 09:25:19;;;;;;;2.92;1.60;;;6.50;99.90;;;;;;5079202;28;20037;-78
2021/12/07 09:28:07;;;;;;;3.05;1.75;;;6.50;99.90;;;;;;5093290;27;20044;-78
2021/12/07 09:31:01;;;;;;;3.58;1.85;;;6.70;99.90;;;;;;5079959;28;20044;-78
2021/12/07 09:33:30;;;;;;;4.53;2.00;;;6.70;99.90;;;;;;5077071;28;20113;-78
2021/12/07 09:36:05;;;;;;;2.55;1.33;;;6.70;99.90;;;;;;5076601;28;21019;-79
2021/12/07 09:38:41;;;;;;;3.25;1.80;;;6.70;99.90;;;;;;5078471;28;20160;-78
2021/12/07 09:41:11;;;;;;;5.22;1.65;;;6.70;99.90;;;;;;5094365;27;20064;-78
2021/12/07 09:44:02;;;;;;;3.45;1.90;;;6.70;99.90;;;;;;5076791;28;20036;-78
2021/12/07 09:46:42;;;;;;;5.53;1.75;;;6.70;99.90;;;;;;5094172;27;20082;-78
2021/12/07 09:49:23;;;;;;;4.32;2.75;;;6.80;99.90;;;;;;5082288;27;20044;-79
2021/12/07 09:55:04;;;;;;;3.13;1.90;;;7.10;99.90;;;;;;5092811;27;20040;-78
2021/12/07 09:57:52;;;;;;;8.57;1.98;;;6.90;99.90;;;;;;5078642;28;20037;-79
2021/12/07 10:00:28;;;;;;;9.70;2.78;;;7.30;99.90;;;;;;5088963;27;20036;-78
2021/12/07 10:03:09;;;;;;;4.68;1.70;;;7.10;99.90;;;;;;5082983;27;20108;-78
2021/12/07 10:08:36;;;;;;;5.53;2.40;;;7.10;99.90;;;;;;5099165;28;20048;-79
2021/12/07 10:11:12;;;;;;;6.82;3.53;;;7.20;99.90;;;;;;5076485;28;20048;-79
2021/12/07 10:13:52;;;;;;;6.15;2.55;;;7.50;99.90;;;;;;5096542;27;20103;-79
2021/12/07 10:16:33;;;;;;;7.85;2.00;;;7.20;99.90;;;;;;5077151;28;20048;-79
2021/12/07 10:19:53;;;;;;;5.10;2.03;;;7.00;99.90;;;;;;5077970;28;20050;-78
2021/12/07 10:22:28;;;;;;;9.10;1.85;;;7.40;99.90;;;;;;4982429;28;20110;-77
2021/12/07 10:25:07;;;;;;;8.20;2.28;;;7.20;99.90;;;;;;4994578;28;20090;-79
2021/12/07 10:27:44;;;;;;;2.42;1.48;;;7.40;99.90;;;;;;4977481;28;20050;-79
2021/12/07 10:30:37;;;;;;;16.80;2.45;;;7.20;99.90;;;;;;5079141;28;20051;-79
2021/12/07 10:33:16;;;;;;;7.07;3.05;;;7.70;99.90;;;;;;5098879;27;20040;-79
2021/12/07 10:35:47;;;;;;;3.88;1.77;;;7.40;99.90;;;;;;5082514;28;20048;-79
2021/12/07 10:38:22;;;;;;;4.85;1.52;;;7.50;99.90;;;;;;5078608;28;20040;-78
2021/12/07 10:41:26;;;;;;;7.20;2.38;;;7.40;99.90;;;;;;5076543;27;20051;-79
2021/12/07 10:43:55;;;;;;;5.68;2.03;;;7.40;99.90;;;;;;5073983;28;20048;-78
2021/12/07 10:47:14;;;;;;;8.88;2.25;;;7.20;99.90;;;;;;5072757;28;20135;-79
2021/12/07 10:49:55;;;;;;;5.30;1.98;;;7.50;99.90;;;;;;5094169;27;20041;-80
2021/12/07 10:52:46;;;;;;;4.75;1.70;;;7.30;99.90;;;;;;5098850;27;20044;-79
2021/12/07 10:55:47;;;;;;;11.90;2.22;;;7.40;99.90;;;;;;5079050;28;20147;-79
2021/12/07 11:01:55;;;;;;;10.27;2.47;;;7.50;99.90;;;;;;5070562;28;20044;-79
2021/12/07 11:04:41;;;;;;;3.97;1.75;;;7.70;99.90;;;;;;5073544;28;20120;-79
2021/12/07 11:07:19;;;;;;;4.90;2.17;;;7.50;99.90;;;;;;5079054;28;20045;-79
2021/12/07 11:10:39;;;;;;;9.50;2.80;;;7.60;99.90;;;;;;5078780;28;20040;-79
2021/12/07 11:13:40;;;;;;;4.55;1.70;;;7.60;99.90;;;;;;5059739;28;20509;-79
2021/12/07 11:16:27;;;;;;;7.20;2.22;;;7.60;99.90;;;;;;5077333;27;20052;-78
2021/12/07 11:19:04;;;;;;;7.88;2.15;;;7.60;99.90;;;;;;5078386;28;20044;-79
2021/12/07 11:21:32;;;;;;;9.27;1.95;;;7.70;99.90;;;;;;5074367;28;20060;-79
2021/12/07 11:24:18;;;;;;;5.57;2.38;;;7.60;99.90;;;;;;5078138;28;20520;-79
2021/12/07 11:32:34;;;;;;;8.77;2.67;;;7.60;99.90;;;;;;5071245;28;20231;-79
2021/12/07 11:35:27;;;;;;;7.65;2.35;;;7.60;99.90;;;;;;5079266;28;20065;-79
2021/12/07 11:38:18;;;;;;;13.07;2.78;;;7.90;99.90;;;;;;5075310;28;20052;-79
2021/12/07 11:40:51;;;;;;;9.23;2.30;;;7.70;99.90;;;;;;5091281;27;20451;-78
2021/12/07 11:43:25;;;;;;;5.20;2.55;;;7.80;99.90;;;;;;5073446;28;20056;-79
2021/12/07 11:45:57;;;;;;;10.07;2.58;;;7.60;99.90;;;;;;5079363;28;20143;-78
2021/12/07 11:49:25;;;;;;;6.97;2.00;;;7.70;99.90;;;;;;5079861;28;21303;-78
2021/12/07 11:52:00;;;;;;;5.38;2.30;;;7.70;99.90;;;;;;4977991;28;20207;-79
2021/12/07 11:54:39;;;;;;;7.05;2.75;;;7.60;99.90;;;;;;5061534;28;20056;-78
2021/12/07 11:57:17;;;;;;;5.15;2.17;;;7.70;99.90;;;;;;5081335;28;20823;-79
2021/12/07 11:59:54;;;;;;;5.75;2.33;;;7.70;99.90;;;;;;5098938;27;20524;-79
2021/12/07 12:02:32;;;;;;;9.25;2.00;;;7.70;99.90;;;;;;5078677;27;20149;-78
2021/12/07 12:05:13;;;;;;;7.40;1.85;;;7.80;99.90;;;;;;5079302;28;20047;-79
2021/12/07 12:07:50;;;;;;;5.57;1.98;;;7.80;99.90;;;;;;5078183;28;20044;-79
2021/12/07 12:10:30;;;;;;;9.18;2.28;;;7.80;99.90;;;;;;5098497;27;20036;-79
2021/12/07 12:13:59;;;;;;;9.52;2.13;;;7.80;99.90;;;;;;5080481;28;20072;-78
2021/12/07 12:17:16;;;;;;;3.90;2.15;;;7.90;99.90;;;;;;5053954;27;20876;-78
2021/12/07 12:20:13;;;;;;;5.47;1.75;;;7.80;99.90;;;;;;5074488;27;20044;-78
2021/12/07 12:23:02;;;;;;;5.00;1.92;;;7.90;99.90;;;;;;5076949;28;20036;-79
2021/12/07 12:25:36;;;;;;;3.80;1.92;;;7.90;99.90;;;;;;5079979;28;20131;-78
2021/12/07 12:28:11;;;;;;;11.68;2.72;;;8.00;99.90;;;;;;5100309;27;20047;-79
2021/12/07 12:30:56;;;;;;;3.65;2.53;;;7.70;99.90;;;;;;5079744;28;20113;-79
2021/12/07 12:33:42;;;;;;;4.88;1.80;;;8.00;99.90;;;;;;5074929;28;20054;-78
2021/12/07 12:36:08;;;;;;;6.85;4.13;;;7.90;99.90;;;;;;5056618;27;20071;-79
2021/12/07 12:39:14;;;;;;;4.80;1.90;;;8.00;99.90;;;;;;5077848;27;20119;-79
2021/12/07 12:41:42;;;;;;;9.82;2.20;;;8.10;99.90;;;;;;5078323;28;20125;-79
2021/12/07 12:44:35;;;;;;;;;;;;;;;;;;;;;
2021/12/07 12:47:21;;;;;;;3.83;1.80;;;8.00;99.90;;;;;;5096092;27;39710;-79
2021/12/07 12:50:16;;;;;;;10.35;2.08;;;8.00;99.90;;;;;;5095887;28;20068;-80
2021/12/07 12:52:55;;;;;;;5.65;2.70;;;8.00;99.90;;;;;;5076681;27;20051;-80
2021/12/07 12:55:48;;;;;;;8.02;2.53;;;7.90;99.90;;;;;;5076524;28;20045;-79
2021/12/07 12:58:47;;;;;;;5.07;1.80;;;8.00;99.90;;;;;;5092699;27;20161;-80
2021/12/07 13:01:32;;;;;;;13.57;2.05;;;8.10;99.90;;;;;;5071077;28;20139;-79
2021/12/07 13:09:49;;;;;;;7.32;2.08;;;8.10;99.90;;;;;;5096041;27;20051;-80
2021/12/07 13:12:41;;;;;;;10.65;1.98;;;8.10;99.90;;;;;;5080005;28;20059;-79
2021/12/07 13:15:33;;;;;;;6.32;2.55;;;8.10;99.90;;;;;;5098553;27;20040;-80
2021/12/07 13:18:37;;;;;;;4.83;1.27;;;8.20;99.90;;;;;;5096610;27;20048;-80
2021/12/07 13:21:28;;;;;;;3.63;1.90;;;8.40;99.90;;;;;;5096692;27;20279;-79
2021/12/07 13:24:41;;;;;;;13.55;2.28;;;8.30;99.90;;;;;;5080791;28;20047;-79
2021/12/07 13:27:28;;;;;;;;;;;;;;;;;;;;;
2021/12/07 13:30:04;;;;;;;;;;;;;;;;;;;;;
2021/12/07 13:33:00;;;;;;;5.68;1.50;;;8.80;99.90;;;;;;5095815;27;41407;-80
2021/12/07 13:35:33;;;;;;;3.42;1.50;;;8.70;99.90;;;;;;5093256;27;20569;-80
2021/12/07 13:38:21;;;;;;;11.35;1.90;;;8.50;99.90;;;;;;5076454;28;20068;-80
2021/12/07 13:41:25;;;;;;;7.18;2.15;;;8.60;99.90;;;;;;5077735;28;20040;-79
2021/12/07 13:44:00;;;;;;;7.40;1.65;;;8.60;99.90;;;;;;5097152;27;20052;-80
2021/12/07 13:46:34;;;;;;;3.53;1.80;;;8.70;99.90;;;;;;5097794;27;20065;-79
2021/12/07 13:49:12;;;;;;;4.03;2.05;;;8.70;99.90;;;;;;5080362;28;20063;-79
2021/12/07 13:51:56;;;;;;;2.58;1.40;;;8.70;99.90;;;;;;5081791;28;20086;-79
2021/12/07 13:54:55;;;;;;;3.60;1.50;;;8.70;99.90;;;;;;5098966;27;20119;-79
2021/12/07 13:57:36;;;;;;;3.78;1.92;;;8.60;99.90;;;;;;5079804;28;20044;-80
2021/12/07 14:00:41;;;;;;;5.10;1.70;;;8.60;99.90;;;;;;5073165;28;20110;-80
2021/12/07 14:03:20;;;;;;;2.92;1.33;;;8.60;99.90;;;;;;5074465;28;20061;-79
2021/12/07 14:06:19;;;;;;;9.25;1.73;;;8.40;99.90;;;;;;5072049;28;20045;-79
2021/12/07 14:09:15;;;;;;;6.70;1.92;;;8.40;99.90;;;;;;5071708;28;20052;-80
2021/12/07 14:11:55;;;;;;;5.40;1.92;;;8.40;99.90;;;;;;5070769;28;20041;-80
2021/12/07 14:14:25;;;;;;;7.68;1.65;;;8.40;99.90;;;;;;5075732;28;20417;-80
2021/12/07 14:17:03;;;;;;;4.10;1.63;;;8.40;99.90;;;;;;5086232;27;20124;-80
2021/12/07 14:19:42;;;;;;;4.55;1.48;;;8.30;99.90;;;;;;5072943;28;20037;-79
2021/12/07 14:22:14;;;;;;;6.32;1.60;;;8.30;99.90;;;;;;5075927;28;20044;-80
2021/12/07 14:24:54;;;;;;;5.53;2.30;;;8.40;99.90;;;;;;5072205;28;20044;-80
2021/12/07 14:27:43;;;;;;;4.15;1.75;;;8.40;99.90;;;;;;5074775;28;20051;-79
2021/12/07 14:30:20;;;;;;;9.95;1.85;;;8.10;99.90;;;;;;5064939;28;20132;-79
2021/12/07 14:32:53;;;;;;;2.17;1.02;;;8.10;99.90;;;;;;5073155;28;20108;-79
2021/12/07 14:35:28;;;;;;;6.38;2.35;;;8.30;99.90;;;;;;5075565;28;20131;-79
2021/12/07 14:38:14;;;;;;;13.60;2.20;;;8.30;99.90;;;;;;5076298;28;20147;-80
2021/12/07 14:41:17;;;;;;;4.75;1.67;;;8.30;99.90;;;;;;5073705;28;20052;-79
2021/12/07 14:44:03;;;;;;;3.42;1.90;;;8.20;99.90;;;;;;5072699;28;20107;-79
2021/12/07 14:46:40;;;;;;;5.57;1.75;;;8.00;99.90;;;;;;5072108;28;20517;-80
2021/12/07 14:49:30;;;;;;;3.35;1.55;;;8.20;99.90;;;;;;5072748;28;20045;-80
2021/12/07 14:52:21;;;;;;;2.60;1.42;;;8.30;99.90;;;;;;5075418;28;20115;-80
2021/12/07 14:54:51;;;;;;;4.75;1.60;;;8.10;99.90;;;;;;5072693;28;20040;-80
2021/12/07 14:57:25;;;;;;;6.72;1.80;;;8.20;99.90;;;;;;5076917;28;20525;-80
2021/12/07 15:00:09;;;;;;;6.70;1.30;;;8.20;99.90;;;;;;5077145;28;20098;-79
2021/12/07 15:02:40;;;;;;;3.60;1.45;;;8.20;99.90;;;;;;5079350;28;20129;-80
2021/12/07 15:05:17;;;;;;;8.15;2.00;;;8.20;99.90;;;;;;5077810;28;20522;-80
2021/12/07 15:07:55;;;;;;;2.22;1.15;;;7.90;99.90;;;;;;5079628;28;20103;-80
2021/12/07 15:10:34;;;;;;;4.88;1.63;;;8.10;99.90;;;;;;5077726;28;20041;-80
2021/12/07 15:16:15;;;;;;;7.28;1.77;;;8.00;99.90;;;;;;5077852;28;20048;-80
2021/12/07 15:19:26;;;;;;;;;;;;;;;;;;;;;
2021/12/07 15:21:56;;;;;;;4.80;2.28;;;8.40;99.90;;;;;;5076416;28;38929;-80
2021/12/07 15:24:32;;;;;;;3.28;1.60;;;8.10;99.90;;;;;;5080337;28;20048;-81
2021/12/07 15:27:14;;;;;;;5.47;1.63;;;8.00;99.90;;;;;;5072316;28;20033;-80
2021/12/07 15:29:58;;;;;;;5.65;2.13;;;8.00;99.90;;;;;;5067753;28;20049;-80
2021/12/07 15:32:40;;;;;;;1.83;1.13;;;8.00;99.90;;;;;;5069280;28;20033;-81
2021/12/07 15:35:07;;;;;;;2.70;1.27;;;8.10;99.90;;;;;;5071348;28;20079;-80
2021/12/07 15:37:46;;;;;;;3.63;1.23;;;7.90;99.90;;;;;;5071108;28;20094;-80
2021/12/07 15:40:24;;;;;;;5.43;1.67;;;8.10;99.90;;;;;;5074433;28;20045;-80
2021/12/07 15:42:58;;;;;;;3.75;1.20;;;8.10;99.90;;;;;;5078111;28;20049;-80
2021/12/07 15:45:30;;;;;;;2.13;1.20;;;8.00;99.90;;;;;;5075472;28;20060;-80
2021/12/07 15:48:23;;;;;;;2.72;1.50;;;8.00;99.90;;;;;;5072081;28;20079;-80
2021/12/07 15:51:02;;;;;;;;;;;;;;;;;;;;;
2021/12/07 15:53:52;;;;;;;4.22;1.73;;;8.00;99.90;;;;;;5077722;28;38271;-80
2021/12/07 15:56:31;;;;;;;3.95;1.52;;;8.00;99.90;;;;;;5078932;28;20049;-80
2021/12/07 15:59:17;;;;;;;7.28;2.67;;;7.90;99.90;;;;;;5075534;28;20083;-80
2021/12/07 16:01:56;;;;;;;3.58;1.13;;;8.00;99.90;;;;;;5074901;28;20047;-80
2021/12/07 16:04:52;;;;;;;2.80;1.52;;;8.00;99.90;;;;;;5075513;28;20119;-80
2021/12/07 16:10:41;;;;;;;9.07;1.35;;;7.90;99.90;;;;;;5071747;28;20116;-79
2021/12/07 16:13:17;;;;;;;3.35;0.88;;;7.90;99.90;;;;;;5073334;28;20946;-79
2021/12/07 16:16:07;;;;;;;1.95;1.42;;;7.90;99.90;;;;;;5074786;28;20099;-80
2021/12/07 16:18:52;;;;;;;1.98;1.17;;;7.90;99.90;;;;;;5072862;28;20037;-79
2021/12/07 16:21:30;;;;;;;2.10;1.38;;;7.90;99.90;;;;;;5074115;28;20037;-80
2021/12/07 16:24:19;;;;;;;2.33;1.38;;;7.80;99.90;;;;;;5079048;28;20036;-79
2021/12/07 16:26:50;;;;;;;1.48;1.10;;;7.80;99.90;;;;;;5073247;28;20049;-79
2021/12/07 16:29:36;;;;;;;3.75;1.42;;;7.80;99.90;;;;;;5076591;28;20095;-79
2021/12/07 16:32:08;;;;;;;2.70;1.73;;;8.00;99.90;;;;;;5078923;28;20127;-79
2021/12/07 16:34:36;;;;;;;;;;;7.80;99.90;;;;;;5076244;28;20041;-79
2021/12/07 16:37:18;;;;;;;3.78;1.08;;;7.80;99.90;;;;;;5074190;28;19920;-79
2021/12/07 16:39:51;;;;;;;4.73;1.10;;;7.80;99.90;;;;;;5073199;28;20092;-79
2021/12/07 16:42:30;;;;;;;2.55;1.10;;;7.80;99.90;;;;;;5077575;28;20294;-79
2021/12/07 16:45:20;;;;;;;2.58;1.00;;;7.80;99.90;;;;;;5077001;28;20120;-79
2021/12/07 16:48:00;;;;;;;1.65;0.93;;;7.90;99.90;;;;;;5069564;28;20086;-79
2021/12/07 16:50:36;;;;;;;3.95;1.17;;;7.90;99.90;;;;;;5073892;28;20666;-80
2021/12/07 16:53:18;;;;;;;7.45;0.98;;;7.80;99.90;;;;;;5075216;28;20041;-79
2021/12/07 16:55:47;;;;;;;4.40;1.50;;;7.90;99.90;;;;;;5077429;28;20044;-79
2021/12/07 16:58:25;;;;;;;3.03;0.82;;;7.90;99.90;;;;;;5075704;28;20040;-79
2021/12/07 17:01:13;;;;;;;2.00;0.98;;;8.20;99.90;;;;;;5078502;28;20040;-80
2021/12/07 17:03:45;;;;;;;4.65;1.17;;;7.90;99.90;;;;;;5100444;27;20048;-79
2021/12/07 17:06:29;;;;;;;6.30;1.25;;;7.90;99.90;;;;;;5082959;28;20051;-80
2021/12/07 17:09:07;;;;;;;3.05;0.98;;;7.90;99.90;;;;;;5083021;28;20071;-80
2021/12/07 17:11:38;;;;;;;2.85;0.98;;;7.80;99.90;;;;;;5084023;28;20052;-80
2021/12/07 17:14:39;;;;;;;2.47;1.10;;;7.90;99.90;;;;;;5099348;27;20040;-80
2021/12/07 17:17:34;;;;;;;3.22;1.42;;;8.00;99.90;;;;;;5082126;28;20047;-80
2021/12/07 17:20:11;;;;;;;1.33;0.77;;;7.90;99.90;;;;;;5083528;27;20426;-80
2021/12/07 17:25:44;;;;;;;3.42;1.35;;;8.00;99.90;;;;;;5094786;27;20074;-80
2021/12/07 17:28:32;;;;;;;5.05;1.30;;;8.00;99.90;;;;;;5091141;27;20110;-80
2021/12/07 17:31:00;;;;;;;5.28;2.03;;;8.20;99.90;;;;;;5097479;27;20079;-80
2021/12/07 17:33:30;;;;;;;3.88;1.17;;;7.50;99.90;;;;;;5079672;28;20091;-80
2021/12/07 17:35:56;;;;;;;2.15;1.23;;;8.40;99.90;;;;;;5080873;28;20134;-81
2021/12/07 17:38:31;;;;;;;4.18;1.20;;;8.20;99.90;;;;;;5099000;27;20035;-81
2021/12/07 17:41:03;;;;;;;3.70;1.63;;;8.00;99.90;;;;;;5074308;28;20063;-81
2021/12/07 17:43:32;;;;;;;4.20;1.05;;;8.50;99.90;;;;;;5095538;27;20575;-81
2021/12/07 17:46:04;;;;;;;4.25;0.88;;;8.00;99.90;;;;;;5096046;27;20097;-81
2021/12/07 17:48:30;;;;;;;1.70;1.17;;;7.90;99.90;;;;;;5079033;28;20044;-81
2021/12/07 17:50:59;;;;;;;5.20;1.42;;;7.90;99.90;;;;;;5097144;27;20097;-81
2021/12/07 17:53:25;;;;;;;2.70;1.48;;;7.90;99.90;;;;;;5098583;27;20046;-81
2021/12/07 17:55:53;;;;;;;5.82;1.38;;;8.10;99.90;;;;;;5089494;27;20544;-81
2021/12/07 17:58:21;;;;;;;3.03;1.35;;;8.00;99.90;;;;;;5091818;27;20048;-81
2021/12/07 18:00:51;;;;;;;2.15;1.17;;;8.00;99.90;;;;;;5075767;28;20043;-81
2021/12/07 18:03:18;;;;;;;3.13;1.13;;;8.00;99.90;;;;;;5077557;28;20055;-81
2021/12/07 18:05:47;;;;;;;2.72;1.05;;;8.00;99.90;;;;;;5070888;27;20098;-81
2021/12/07 18:08:18;;;;;;;3.00;1.60;;;8.40;99.90;;;;;;5071949;28;20101;-81
2021/12/07 18:10:52;;;;;;;1.80;1.05;;;7.60;99.90;;;;;;5072569;28;20064;-81
2021/12/07 18:13:20;;;;;;;2.80;1.00;;;7.90;99.90;;;;;;5094732;27;20040;-81
2021/12/07 18:15:48;;;;;;;1.75;0.85;;;7.90;99.90;;;;;;5096126;27;20044;-81